sensor_id;sensor_type;location;lat;lon;timestamp;P1;durP1;ratioP1;P2;durP2;ratioP2
25952;SDS011;13750;50.804;8.764;2023-09-30T00:01:38;4.43;;;1.95;;
25952;SDS011;13750;50.804;8.764;2023-09-30T00:04:06;3.17;;;1.58;;
25952;SDS011;13750;50.804;8.764;2023-09-30T00:06:32;1.60;;;1.40;;
25952;SDS011;13750;50.804;8.764;2023-09-30T00:08:57;1.97;;;1.77;;
25952;SDS011;13750;50.804;8.764;2023-09-30T00:11:23;2.10;;;1.53;;
25952;SDS011;13750;50.804;8.764;2023-09-30T00:13:49;2.07;;;1.40;;
25952;SDS011;13750;50.804;8.764;2023-09-30T00:16:15;3.08;;;1.55;;
25952;SDS011;13750;50.804;8.764;2023-09-30T00:18:42;2.63;;;1.70;;
25952;SDS011;13750;50.804;8.764;2023-09-30T00:21:08;2.00;;;1.57;;
25952;SDS011;13750;50.804;8.764;2023-09-30T00:23:34;3.20;;;1.60;;
25952;SDS011;13750;50.804;8.764;2023-09-30T00:25:59;2.63;;;1.60;;
25952;SDS011;13750;50.804;8.764;2023-09-30T00:28:25;1.25;;;1.15;;
25952;SDS011;13750;50.804;8.764;2023-09-30T00:30:51;1.70;;;1.33;;
25952;SDS011;13750;50.804;8.764;2023-09-30T00:33:17;2.77;;;1.30;;
25952;SDS011;13750;50.804;8.764;2023-09-30T00:35:42;3.37;;;1.20;;
25952;SDS011;13750;50.804;8.764;2023-09-30T00:38:08;1.73;;;1.30;;
25952;SDS011;13750;50.804;8.764;2023-09-30T00:40:35;2.08;;;1.55;;
25952;SDS011;13750;50.804;8.764;2023-09-30T00:43:01;2.03;;;1.77;;
25952;SDS011;13750;50.804;8.764;2023-09-30T00:45:27;2.13;;;1.57;;
25952;SDS011;13750;50.804;8.764;2023-09-30T00:47:53;2.75;;;1.65;;
25952;SDS011;13750;50.804;8.764;2023-09-30T00:50:19;2.07;;;1.37;;
25952;SDS011;13750;50.804;8.764;2023-09-30T00:52:46;2.78;;;1.50;;
25952;SDS011;13750;50.804;8.764;2023-09-30T00:55:13;2.47;;;1.92;;
25952;SDS011;13750;50.804;8.764;2023-09-30T01:00:06;4.18;;;2.80;;
25952;SDS011;13750;50.804;8.764;2023-09-30T01:02:38;3.67;;;2.00;;
25952;SDS011;13750;50.804;8.764;2023-09-30T01:05:06;3.35;;;1.77;;
25952;SDS011;13750;50.804;8.764;2023-09-30T01:07:33;5.13;;;2.22;;
25952;SDS011;13750;50.804;8.764;2023-09-30T01:12:24;2.97;;;2.20;;
25952;SDS011;13750;50.804;8.764;2023-09-30T01:14:50;2.43;;;1.90;;
25952;SDS011;13750;50.804;8.764;2023-09-30T01:17:15;2.20;;;1.57;;
25952;SDS011;13750;50.804;8.764;2023-09-30T01:19:41;3.03;;;1.73;;
25952;SDS011;13750;50.804;8.764;2023-09-30T01:22:10;2.67;;;1.70;;
25952;SDS011;13750;50.804;8.764;2023-09-30T01:24:40;3.22;;;1.60;;
25952;SDS011;13750;50.804;8.764;2023-09-30T01:27:06;2.80;;;1.55;;
25952;SDS011;13750;50.804;8.764;2023-09-30T01:29:32;2.08;;;1.80;;
25952;SDS011;13750;50.804;8.764;2023-09-30T01:31:58;2.03;;;1.43;;
25952;SDS011;13750;50.804;8.764;2023-09-30T01:34:24;2.53;;;1.83;;
25952;SDS011;13750;50.804;8.764;2023-09-30T01:36:49;2.10;;;1.47;;
25952;SDS011;13750;50.804;8.764;2023-09-30T01:39:15;2.03;;;1.90;;
25952;SDS011;13750;50.804;8.764;2023-09-30T01:41:41;2.07;;;1.50;;
25952;SDS011;13750;50.804;8.764;2023-09-30T01:44:07;3.93;;;2.53;;
25952;SDS011;13750;50.804;8.764;2023-09-30T01:46:34;2.67;;;1.70;;
25952;SDS011;13750;50.804;8.764;2023-09-30T01:51:27;3.10;;;2.00;;
25952;SDS011;13750;50.804;8.764;2023-09-30T01:56:20;2.28;;;1.70;;
25952;SDS011;13750;50.804;8.764;2023-09-30T01:58:45;1.97;;;1.60;;
25952;SDS011;13750;50.804;8.764;2023-09-30T02:01:11;1.83;;;1.73;;
25952;SDS011;13750;50.804;8.764;2023-09-30T02:03:36;3.33;;;2.13;;
25952;SDS011;13750;50.804;8.764;2023-09-30T02:06:02;3.33;;;2.40;;
25952;SDS011;13750;50.804;8.764;2023-09-30T02:08:28;3.47;;;2.95;;
25952;SDS011;13750;50.804;8.764;2023-09-30T02:10:54;4.13;;;3.30;;
25952;SDS011;13750;50.804;8.764;2023-09-30T02:13:19;3.70;;;2.80;;
25952;SDS011;13750;50.804;8.764;2023-09-30T02:15:45;4.00;;;2.83;;
25952;SDS011;13750;50.804;8.764;2023-09-30T02:18:11;3.33;;;2.57;;
25952;SDS011;13750;50.804;8.764;2023-09-30T02:20:37;2.60;;;2.40;;
25952;SDS011;13750;50.804;8.764;2023-09-30T02:23:05;2.67;;;2.10;;
25952;SDS011;13750;50.804;8.764;2023-09-30T02:25:38;2.42;;;1.60;;
25952;SDS011;13750;50.804;8.764;2023-09-30T02:28:04;3.97;;;2.10;;
25952;SDS011;13750;50.804;8.764;2023-09-30T02:32:56;3.00;;;2.20;;
25952;SDS011;13750;50.804;8.764;2023-09-30T02:35:22;3.47;;;2.50;;
25952;SDS011;13750;50.804;8.764;2023-09-30T02:37:48;4.33;;;2.23;;
25952;SDS011;13750;50.804;8.764;2023-09-30T02:40:16;2.40;;;2.15;;
25952;SDS011;13750;50.804;8.764;2023-09-30T02:42:43;2.33;;;1.95;;
25952;SDS011;13750;50.804;8.764;2023-09-30T02:45:10;2.38;;;2.05;;
25952;SDS011;13750;50.804;8.764;2023-09-30T02:47:37;2.45;;;1.88;;
25952;SDS011;13750;50.804;8.764;2023-09-30T02:50:07;2.67;;;1.90;;
25952;SDS011;13750;50.804;8.764;2023-09-30T02:52:33;3.40;;;1.98;;
25952;SDS011;13750;50.804;8.764;2023-09-30T02:54:59;2.97;;;2.30;;
25952;SDS011;13750;50.804;8.764;2023-09-30T02:57:25;3.87;;;2.30;;
25952;SDS011;13750;50.804;8.764;2023-09-30T02:59:52;2.42;;;1.73;;
25952;SDS011;13750;50.804;8.764;2023-09-30T03:02:19;3.13;;;2.13;;
25952;SDS011;13750;50.804;8.764;2023-09-30T03:04:46;2.35;;;1.70;;
25952;SDS011;13750;50.804;8.764;2023-09-30T03:07:13;2.70;;;1.80;;
25952;SDS011;13750;50.804;8.764;2023-09-30T03:09:38;2.08;;;1.52;;
25952;SDS011;13750;50.804;8.764;2023-09-30T03:12:04;2.00;;;1.67;;
25952;SDS011;13750;50.804;8.764;2023-09-30T03:14:30;2.78;;;1.67;;
25952;SDS011;13750;50.804;8.764;2023-09-30T03:16:57;2.28;;;2.08;;
25952;SDS011;13750;50.804;8.764;2023-09-30T03:19:24;2.53;;;1.63;;
25952;SDS011;13750;50.804;8.764;2023-09-30T03:21:49;2.23;;;1.63;;
25952;SDS011;13750;50.804;8.764;2023-09-30T03:24:15;2.43;;;1.40;;
25952;SDS011;13750;50.804;8.764;2023-09-30T03:26:41;2.65;;;2.05;;
25952;SDS011;13750;50.804;8.764;2023-09-30T03:29:07;2.20;;;1.70;;
25952;SDS011;13750;50.804;8.764;2023-09-30T03:31:37;2.13;;;1.50;;
25952;SDS011;13750;50.804;8.764;2023-09-30T03:34:03;2.17;;;1.50;;
25952;SDS011;13750;50.804;8.764;2023-09-30T03:36:29;2.20;;;1.73;;
25952;SDS011;13750;50.804;8.764;2023-09-30T03:38:55;4.20;;;1.90;;
25952;SDS011;13750;50.804;8.764;2023-09-30T03:41:24;2.70;;;1.80;;
25952;SDS011;13750;50.804;8.764;2023-09-30T03:43:50;3.23;;;2.27;;
25952;SDS011;13750;50.804;8.764;2023-09-30T03:46:16;2.90;;;2.30;;
25952;SDS011;13750;50.804;8.764;2023-09-30T03:48:42;2.85;;;1.88;;
25952;SDS011;13750;50.804;8.764;2023-09-30T03:51:13;2.08;;;1.75;;
25952;SDS011;13750;50.804;8.764;2023-09-30T03:53:40;2.20;;;1.85;;
25952;SDS011;13750;50.804;8.764;2023-09-30T03:56:09;3.15;;;2.05;;
25952;SDS011;13750;50.804;8.764;2023-09-30T03:58:41;2.53;;;2.13;;
25952;SDS011;13750;50.804;8.764;2023-09-30T04:01:08;3.08;;;2.20;;
25952;SDS011;13750;50.804;8.764;2023-09-30T04:03:36;3.55;;;2.65;;
25952;SDS011;13750;50.804;8.764;2023-09-30T04:06:04;3.53;;;2.70;;
25952;SDS011;13750;50.804;8.764;2023-09-30T04:08:32;4.22;;;2.60;;
25952;SDS011;13750;50.804;8.764;2023-09-30T04:11:03;3.10;;;2.75;;
25952;SDS011;13750;50.804;8.764;2023-09-30T04:13:29;3.10;;;2.15;;
25952;SDS011;13750;50.804;8.764;2023-09-30T04:15:55;2.73;;;2.43;;
25952;SDS011;13750;50.804;8.764;2023-09-30T04:18:23;3.17;;;2.72;;
25952;SDS011;13750;50.804;8.764;2023-09-30T04:20:51;4.03;;;2.50;;
25952;SDS011;13750;50.804;8.764;2023-09-30T04:23:17;2.60;;;2.00;;
25952;SDS011;13750;50.804;8.764;2023-09-30T04:25:45;2.05;;;1.85;;
25952;SDS011;13750;50.804;8.764;2023-09-30T04:28:11;3.88;;;2.30;;
25952;SDS011;13750;50.804;8.764;2023-09-30T04:30:38;3.13;;;2.28;;
25952;SDS011;13750;50.804;8.764;2023-09-30T04:33:04;1.90;;;1.70;;
25952;SDS011;13750;50.804;8.764;2023-09-30T04:35:32;2.30;;;1.77;;
25952;SDS011;13750;50.804;8.764;2023-09-30T04:37:57;2.90;;;2.07;;
25952;SDS011;13750;50.804;8.764;2023-09-30T04:40:26;4.00;;;2.15;;
25952;SDS011;13750;50.804;8.764;2023-09-30T04:42:52;2.65;;;2.00;;
25952;SDS011;13750;50.804;8.764;2023-09-30T04:45:26;3.30;;;1.90;;
25952;SDS011;13750;50.804;8.764;2023-09-30T04:47:52;3.60;;;1.98;;
25952;SDS011;13750;50.804;8.764;2023-09-30T04:50:21;3.13;;;2.63;;
25952;SDS011;13750;50.804;8.764;2023-09-30T04:52:47;3.33;;;3.00;;
25952;SDS011;13750;50.804;8.764;2023-09-30T04:57:41;3.03;;;2.65;;
25952;SDS011;13750;50.804;8.764;2023-09-30T05:00:09;2.88;;;2.10;;
25952;SDS011;13750;50.804;8.764;2023-09-30T05:02:37;2.95;;;1.98;;
25952;SDS011;13750;50.804;8.764;2023-09-30T05:05:03;2.70;;;2.28;;
25952;SDS011;13750;50.804;8.764;2023-09-30T05:07:32;1.83;;;1.73;;
25952;SDS011;13750;50.804;8.764;2023-09-30T05:09:58;3.40;;;2.40;;
25952;SDS011;13750;50.804;8.764;2023-09-30T05:12:24;2.42;;;1.88;;
25952;SDS011;13750;50.804;8.764;2023-09-30T05:14:50;3.13;;;1.90;;
25952;SDS011;13750;50.804;8.764;2023-09-30T05:17:16;2.83;;;2.07;;
25952;SDS011;13750;50.804;8.764;2023-09-30T05:19:41;3.17;;;2.03;;
25952;SDS011;13750;50.804;8.764;2023-09-30T05:22:07;2.87;;;1.80;;
25952;SDS011;13750;50.804;8.764;2023-09-30T05:24:32;3.07;;;2.03;;
25952;SDS011;13750;50.804;8.764;2023-09-30T05:27:00;2.42;;;1.65;;
25952;SDS011;13750;50.804;8.764;2023-09-30T05:29:26;1.98;;;1.70;;
25952;SDS011;13750;50.804;8.764;2023-09-30T05:31:52;2.60;;;1.97;;
25952;SDS011;13750;50.804;8.764;2023-09-30T05:34:17;2.93;;;1.80;;
25952;SDS011;13750;50.804;8.764;2023-09-30T05:36:43;2.67;;;1.87;;
25952;SDS011;13750;50.804;8.764;2023-09-30T05:39:09;3.13;;;2.10;;
25952;SDS011;13750;50.804;8.764;2023-09-30T05:41:35;3.25;;;2.22;;
25952;SDS011;13750;50.804;8.764;2023-09-30T05:46:28;1.50;;;1.30;;
25952;SDS011;13750;50.804;8.764;2023-09-30T05:48:55;2.53;;;1.63;;
25952;SDS011;13750;50.804;8.764;2023-09-30T05:51:21;3.47;;;1.80;;
25952;SDS011;13750;50.804;8.764;2023-09-30T05:53:47;3.17;;;2.27;;
25952;SDS011;13750;50.804;8.764;2023-09-30T05:56:13;2.67;;;1.80;;
25952;SDS011;13750;50.804;8.764;2023-09-30T06:01:09;3.13;;;2.00;;
25952;SDS011;13750;50.804;8.764;2023-09-30T06:03:36;2.78;;;1.85;;
25952;SDS011;13750;50.804;8.764;2023-09-30T06:06:11;2.78;;;2.17;;
25952;SDS011;13750;50.804;8.764;2023-09-30T06:08:37;2.20;;;1.75;;
25952;SDS011;13750;50.804;8.764;2023-09-30T06:11:03;2.78;;;1.60;;
25952;SDS011;13750;50.804;8.764;2023-09-30T06:13:29;3.43;;;2.10;;
25952;SDS011;13750;50.804;8.764;2023-09-30T06:15:56;2.53;;;1.77;;
25952;SDS011;13750;50.804;8.764;2023-09-30T06:18:22;2.53;;;1.83;;
25952;SDS011;13750;50.804;8.764;2023-09-30T06:20:48;3.77;;;2.70;;
25952;SDS011;13750;50.804;8.764;2023-09-30T06:23:14;3.53;;;2.40;;
25952;SDS011;13750;50.804;8.764;2023-09-30T06:28:06;2.42;;;1.95;;
25952;SDS011;13750;50.804;8.764;2023-09-30T06:30:33;2.85;;;2.20;;
25952;SDS011;13750;50.804;8.764;2023-09-30T06:32:59;2.37;;;2.07;;
25952;SDS011;13750;50.804;8.764;2023-09-30T06:37:52;2.22;;;1.95;;
25952;SDS011;13750;50.804;8.764;2023-09-30T06:40:17;3.30;;;2.10;;
25952;SDS011;13750;50.804;8.764;2023-09-30T06:42:43;3.20;;;2.28;;
25952;SDS011;13750;50.804;8.764;2023-09-30T06:45:09;4.03;;;2.40;;
25952;SDS011;13750;50.804;8.764;2023-09-30T06:47:36;3.50;;;2.72;;
25952;SDS011;13750;50.804;8.764;2023-09-30T06:50:03;2.33;;;2.13;;
25952;SDS011;13750;50.804;8.764;2023-09-30T07:00:37;2.92;;;2.03;;
25952;SDS011;13750;50.804;8.764;2023-09-30T07:03:03;2.20;;;1.83;;
25952;SDS011;13750;50.804;8.764;2023-09-30T07:05:29;2.20;;;1.65;;
25952;SDS011;13750;50.804;8.764;2023-09-30T07:07:55;3.17;;;2.03;;
25952;SDS011;13750;50.804;8.764;2023-09-30T07:10:21;2.57;;;2.20;;
25952;SDS011;13750;50.804;8.764;2023-09-30T07:12:46;2.97;;;2.20;;
25952;SDS011;13750;50.804;8.764;2023-09-30T07:15:12;2.50;;;1.93;;
25952;SDS011;13750;50.804;8.764;2023-09-30T07:17:39;3.58;;;2.60;;
25952;SDS011;13750;50.804;8.764;2023-09-30T07:20:05;2.70;;;2.30;;
25952;SDS011;13750;50.804;8.764;2023-09-30T07:24:58;3.20;;;2.58;;
25952;SDS011;13750;50.804;8.764;2023-09-30T07:27:23;2.60;;;2.27;;
25952;SDS011;13750;50.804;8.764;2023-09-30T07:29:49;2.13;;;1.73;;
25952;SDS011;13750;50.804;8.764;2023-09-30T07:32:15;3.37;;;2.20;;
25952;SDS011;13750;50.804;8.764;2023-09-30T07:34:41;2.40;;;1.63;;
25952;SDS011;13750;50.804;8.764;2023-09-30T07:37:07;2.10;;;1.60;;
25952;SDS011;13750;50.804;8.764;2023-09-30T07:39:33;3.03;;;2.03;;
25952;SDS011;13750;50.804;8.764;2023-09-30T07:42:00;2.40;;;1.80;;
25952;SDS011;13750;50.804;8.764;2023-09-30T07:44:26;3.17;;;1.53;;
25952;SDS011;13750;50.804;8.764;2023-09-30T07:46:51;2.07;;;1.70;;
25952;SDS011;13750;50.804;8.764;2023-09-30T07:49:17;3.03;;;2.57;;
25952;SDS011;13750;50.804;8.764;2023-09-30T07:51:43;2.23;;;1.40;;
25952;SDS011;13750;50.804;8.764;2023-09-30T07:54:08;3.23;;;1.90;;
25952;SDS011;13750;50.804;8.764;2023-09-30T07:56:34;1.90;;;1.47;;
25952;SDS011;13750;50.804;8.764;2023-09-30T07:59:01;2.50;;;1.80;;
25952;SDS011;13750;50.804;8.764;2023-09-30T08:01:27;1.58;;;1.40;;
25952;SDS011;13750;50.804;8.764;2023-09-30T08:03:55;2.83;;;1.50;;
25952;SDS011;13750;50.804;8.764;2023-09-30T08:06:21;2.30;;;1.50;;
25952;SDS011;13750;50.804;8.764;2023-09-30T08:08:46;2.03;;;1.27;;
25952;SDS011;13750;50.804;8.764;2023-09-30T08:11:12;1.93;;;1.40;;
25952;SDS011;13750;50.804;8.764;2023-09-30T08:13:38;1.10;;;1.00;;
25952;SDS011;13750;50.804;8.764;2023-09-30T08:16:04;1.67;;;1.33;;
25952;SDS011;13750;50.804;8.764;2023-09-30T08:18:29;1.63;;;1.03;;
25952;SDS011;13750;50.804;8.764;2023-09-30T08:20:55;1.10;;;1.00;;
25952;SDS011;13750;50.804;8.764;2023-09-30T08:23:21;1.43;;;1.10;;
25952;SDS011;13750;50.804;8.764;2023-09-30T08:25:46;1.33;;;1.23;;
25952;SDS011;13750;50.804;8.764;2023-09-30T08:28:12;1.73;;;0.97;;
25952;SDS011;13750;50.804;8.764;2023-09-30T08:30:38;0.90;;;0.77;;
25952;SDS011;13750;50.804;8.764;2023-09-30T08:33:03;0.90;;;0.80;;
25952;SDS011;13750;50.804;8.764;2023-09-30T08:35:30;1.20;;;0.90;;
25952;SDS011;13750;50.804;8.764;2023-09-30T08:38:00;1.05;;;0.93;;
25952;SDS011;13750;50.804;8.764;2023-09-30T08:40:27;1.27;;;0.88;;
25952;SDS011;13750;50.804;8.764;2023-09-30T09:24:36;1.38;;;0.82;;
25952;SDS011;13750;50.804;8.764;2023-09-30T09:27:10;0.90;;;0.50;;
25952;SDS011;13750;50.804;8.764;2023-09-30T09:29:38;0.85;;;0.70;;
25952;SDS011;13750;50.804;8.764;2023-09-30T09:32:14;1.25;;;0.70;;
25952;SDS011;13750;50.804;8.764;2023-09-30T09:34:43;0.57;;;0.50;;
25952;SDS011;13750;50.804;8.764;2023-09-30T09:37:27;1.40;;;0.70;;
25952;SDS011;13750;50.804;8.764;2023-09-30T09:39:53;1.48;;;0.85;;
25952;SDS011;13750;50.804;8.764;2023-09-30T09:42:24;1.23;;;0.90;;
25952;SDS011;13750;50.804;8.764;2023-09-30T09:45:01;4.57;;;1.50;;
25952;SDS011;13750;50.804;8.764;2023-09-30T09:47:31;3.70;;;1.48;;
25952;SDS011;13750;50.804;8.764;2023-09-30T09:49:58;2.50;;;1.48;;
25952;SDS011;13750;50.804;8.764;2023-09-30T09:52:24;5.53;;;1.13;;
25952;SDS011;13750;50.804;8.764;2023-09-30T09:54:51;2.93;;;1.33;;
25952;SDS011;13750;50.804;8.764;2023-09-30T09:57:17;2.77;;;1.00;;
25952;SDS011;13750;50.804;8.764;2023-09-30T09:59:44;2.05;;;1.20;;
25952;SDS011;13750;50.804;8.764;2023-09-30T10:02:15;4.30;;;1.17;;
25952;SDS011;13750;50.804;8.764;2023-09-30T10:04:42;2.85;;;1.50;;
25952;SDS011;13750;50.804;8.764;2023-09-30T10:07:13;2.00;;;1.23;;
25952;SDS011;13750;50.804;8.764;2023-09-30T10:09:45;2.25;;;1.10;;
25952;SDS011;13750;50.804;8.764;2023-09-30T10:12:13;1.73;;;1.25;;
25952;SDS011;13750;50.804;8.764;2023-09-30T10:14:40;2.40;;;1.10;;
25952;SDS011;13750;50.804;8.764;2023-09-30T10:17:05;2.97;;;1.00;;
25952;SDS011;13750;50.804;8.764;2023-09-30T10:19:31;3.70;;;1.20;;
25952;SDS011;13750;50.804;8.764;2023-09-30T10:24:42;1.50;;;0.85;;
25952;SDS011;13750;50.804;8.764;2023-09-30T10:35:21;2.53;;;1.50;;
25952;SDS011;13750;50.804;8.764;2023-09-30T10:40:48;3.03;;;1.00;;
25952;SDS011;13750;50.804;8.764;2023-09-30T10:46:00;1.40;;;0.90;;
25952;SDS011;13750;50.804;8.764;2023-09-30T10:51:10;3.35;;;1.10;;
25952;SDS011;13750;50.804;8.764;2023-09-30T10:53:43;2.08;;;1.10;;
25952;SDS011;13750;50.804;8.764;2023-09-30T10:56:11;2.55;;;1.25;;
25952;SDS011;13750;50.804;8.764;2023-09-30T10:58:44;1.02;;;0.77;;
25952;SDS011;13750;50.804;8.764;2023-09-30T11:01:12;0.80;;;0.70;;
25952;SDS011;13750;50.804;8.764;2023-09-30T11:03:44;1.88;;;1.20;;
25952;SDS011;13750;50.804;8.764;2023-09-30T11:06:11;2.53;;;1.58;;
25952;SDS011;13750;50.804;8.764;2023-09-30T11:08:40;2.80;;;1.40;;
25952;SDS011;13750;50.804;8.764;2023-09-30T11:11:15;1.77;;;1.13;;
25952;SDS011;13750;50.804;8.764;2023-09-30T11:13:41;2.63;;;1.20;;
25952;SDS011;13750;50.804;8.764;2023-09-30T11:16:07;2.47;;;1.17;;
25952;SDS011;13750;50.804;8.764;2023-09-30T11:18:33;1.73;;;1.30;;
25952;SDS011;13750;50.804;8.764;2023-09-30T11:21:06;1.30;;;0.90;;
25952;SDS011;13750;50.804;8.764;2023-09-30T11:23:33;1.17;;;0.70;;
25952;SDS011;13750;50.804;8.764;2023-09-30T11:26:00;0.88;;;0.70;;
25952;SDS011;13750;50.804;8.764;2023-09-30T11:28:34;0.60;;;0.50;;
25952;SDS011;13750;50.804;8.764;2023-09-30T11:31:06;0.75;;;0.52;;
25952;SDS011;13750;50.804;8.764;2023-09-30T11:33:46;0.65;;;0.60;;
25952;SDS011;13750;50.804;8.764;2023-09-30T11:36:14;0.73;;;0.55;;
25952;SDS011;13750;50.804;8.764;2023-09-30T11:38:43;1.85;;;0.90;;
25952;SDS011;13750;50.804;8.764;2023-09-30T11:41:11;0.80;;;0.70;;
25952;SDS011;13750;50.804;8.764;2023-09-30T11:43:37;2.23;;;1.10;;
25952;SDS011;13750;50.804;8.764;2023-09-30T11:46:07;2.15;;;1.10;;
25952;SDS011;13750;50.804;8.764;2023-09-30T11:48:36;3.17;;;1.13;;
25952;SDS011;13750;50.804;8.764;2023-09-30T11:51:02;2.00;;;0.85;;
25952;SDS011;13750;50.804;8.764;2023-09-30T11:53:32;3.85;;;0.90;;
25952;SDS011;13750;50.804;8.764;2023-09-30T11:56:00;1.92;;;1.00;;
25952;SDS011;13750;50.804;8.764;2023-09-30T11:58:32;1.65;;;0.80;;
25952;SDS011;13750;50.804;8.764;2023-09-30T12:00:58;2.67;;;0.80;;
25952;SDS011;13750;50.804;8.764;2023-09-30T12:03:27;3.40;;;1.42;;
25952;SDS011;13750;50.804;8.764;2023-09-30T12:05:53;1.97;;;1.00;;
25952;SDS011;13750;50.804;8.764;2023-09-30T12:08:20;1.70;;;0.95;;
25952;SDS011;13750;50.804;8.764;2023-09-30T12:10:47;2.35;;;0.80;;
25952;SDS011;13750;50.804;8.764;2023-09-30T12:13:12;1.57;;;0.80;;
25952;SDS011;13750;50.804;8.764;2023-09-30T12:15:40;1.33;;;0.75;;
25952;SDS011;13750;50.804;8.764;2023-09-30T12:18:06;1.57;;;0.60;;
25952;SDS011;13750;50.804;8.764;2023-09-30T12:23:07;2.03;;;1.23;;
25952;SDS011;13750;50.804;8.764;2023-09-30T12:25:33;1.27;;;1.00;;
25952;SDS011;13750;50.804;8.764;2023-09-30T12:27:58;0.83;;;0.60;;
25952;SDS011;13750;50.804;8.764;2023-09-30T12:30:24;1.50;;;0.83;;
25952;SDS011;13750;50.804;8.764;2023-09-30T12:32:51;2.75;;;0.80;;
25952;SDS011;13750;50.804;8.764;2023-09-30T12:35:19;0.55;;;0.40;;
25952;SDS011;13750;50.804;8.764;2023-09-30T12:37:46;1.50;;;0.90;;
25952;SDS011;13750;50.804;8.764;2023-09-30T12:40:11;1.90;;;0.83;;
25952;SDS011;13750;50.804;8.764;2023-09-30T12:42:39;1.20;;;0.70;;
25952;SDS011;13750;50.804;8.764;2023-09-30T12:45:05;0.60;;;0.60;;
25952;SDS011;13750;50.804;8.764;2023-09-30T12:47:30;0.70;;;0.50;;
25952;SDS011;13750;50.804;8.764;2023-09-30T12:57:27;2.33;;;0.65;;
25952;SDS011;13750;50.804;8.764;2023-09-30T13:02:28;1.50;;;0.52;;
25952;SDS011;13750;50.804;8.764;2023-09-30T13:04:55;1.08;;;0.80;;
25952;SDS011;13750;50.804;8.764;2023-09-30T13:07:21;1.00;;;0.60;;
25952;SDS011;13750;50.804;8.764;2023-09-30T13:09:46;1.13;;;0.60;;
25952;SDS011;13750;50.804;8.764;2023-09-30T13:12:12;1.43;;;0.70;;
25952;SDS011;13750;50.804;8.764;2023-09-30T13:14:38;4.50;;;1.35;;
25952;SDS011;13750;50.804;8.764;2023-09-30T13:17:04;2.00;;;0.90;;
25952;SDS011;13750;50.804;8.764;2023-09-30T13:19:29;2.13;;;0.67;;
25952;SDS011;13750;50.804;8.764;2023-09-30T13:21:58;1.77;;;0.98;;
25952;SDS011;13750;50.804;8.764;2023-09-30T13:24:23;0.97;;;0.60;;
25952;SDS011;13750;50.804;8.764;2023-09-30T13:26:49;0.70;;;0.40;;
25952;SDS011;13750;50.804;8.764;2023-09-30T13:29:17;1.10;;;0.73;;
25952;SDS011;13750;50.804;8.764;2023-09-30T13:31:43;0.60;;;0.50;;
25952;SDS011;13750;50.804;8.764;2023-09-30T13:34:10;1.42;;;0.70;;
25952;SDS011;13750;50.804;8.764;2023-09-30T13:36:37;0.50;;;0.50;;
25952;SDS011;13750;50.804;8.764;2023-09-30T13:39:03;0.60;;;0.43;;
25952;SDS011;13750;50.804;8.764;2023-09-30T13:41:33;1.17;;;0.47;;
25952;SDS011;13750;50.804;8.764;2023-09-30T13:43:59;0.50;;;0.32;;
25952;SDS011;13750;50.804;8.764;2023-09-30T13:46:25;0.30;;;0.30;;
25952;SDS011;13750;50.804;8.764;2023-09-30T13:48:53;0.68;;;0.40;;
25952;SDS011;13750;50.804;8.764;2023-09-30T13:51:18;0.40;;;0.33;;
25952;SDS011;13750;50.804;8.764;2023-09-30T13:53:44;0.57;;;0.50;;
25952;SDS011;13750;50.804;8.764;2023-09-30T13:56:09;0.40;;;0.30;;
25952;SDS011;13750;50.804;8.764;2023-09-30T13:58:35;0.80;;;0.30;;
25952;SDS011;13750;50.804;8.764;2023-09-30T14:01:02;0.63;;;0.40;;
25952;SDS011;13750;50.804;8.764;2023-09-30T14:03:28;1.10;;;0.55;;
25952;SDS011;13750;50.804;8.764;2023-09-30T14:05:54;0.70;;;0.43;;
25952;SDS011;13750;50.804;8.764;2023-09-30T14:08:21;1.00;;;0.50;;
25952;SDS011;13750;50.804;8.764;2023-09-30T14:10:47;0.53;;;0.40;;
25952;SDS011;13750;50.804;8.764;2023-09-30T14:13:12;0.50;;;0.50;;
25952;SDS011;13750;50.804;8.764;2023-09-30T14:15:40;0.38;;;0.38;;
25952;SDS011;13750;50.804;8.764;2023-09-30T14:18:05;0.70;;;0.60;;
25952;SDS011;13750;50.804;8.764;2023-09-30T14:20:31;0.73;;;0.40;;
25952;SDS011;13750;50.804;8.764;2023-09-30T14:22:58;0.50;;;0.50;;
25952;SDS011;13750;50.804;8.764;2023-09-30T14:25:24;0.67;;;0.40;;
25952;SDS011;13750;50.804;8.764;2023-09-30T14:27:50;0.63;;;0.43;;
25952;SDS011;13750;50.804;8.764;2023-09-30T14:32:51;1.00;;;0.40;;
25952;SDS011;13750;50.804;8.764;2023-09-30T14:35:19;0.70;;;0.40;;
25952;SDS011;13750;50.804;8.764;2023-09-30T14:37:50;0.75;;;0.60;;
25952;SDS011;13750;50.804;8.764;2023-09-30T14:40:19;0.90;;;0.47;;
25952;SDS011;13750;50.804;8.764;2023-09-30T14:42:44;0.77;;;0.50;;
25952;SDS011;13750;50.804;8.764;2023-09-30T14:45:10;1.10;;;0.57;;
25952;SDS011;13750;50.804;8.764;2023-09-30T14:47:36;0.90;;;0.50;;
25952;SDS011;13750;50.804;8.764;2023-09-30T14:50:07;0.63;;;0.50;;
25952;SDS011;13750;50.804;8.764;2023-09-30T14:52:34;0.68;;;0.40;;
25952;SDS011;13750;50.804;8.764;2023-09-30T14:54:59;0.70;;;0.57;;
25952;SDS011;13750;50.804;8.764;2023-09-30T14:57:25;0.50;;;0.40;;
25952;SDS011;13750;50.804;8.764;2023-09-30T15:10:13;0.80;;;0.40;;
25952;SDS011;13750;50.804;8.764;2023-09-30T15:12:41;0.40;;;0.40;;
25952;SDS011;13750;50.804;8.764;2023-09-30T15:15:09;0.73;;;0.35;;
25952;SDS011;13750;50.804;8.764;2023-09-30T15:17:39;0.73;;;0.60;;
25952;SDS011;13750;50.804;8.764;2023-09-30T15:20:12;0.95;;;0.50;;
25952;SDS011;13750;50.804;8.764;2023-09-30T15:22:38;0.60;;;0.40;;
25952;SDS011;13750;50.804;8.764;2023-09-30T15:25:03;0.23;;;0.23;;
25952;SDS011;13750;50.804;8.764;2023-09-30T15:27:30;0.55;;;0.40;;
25952;SDS011;13750;50.804;8.764;2023-09-30T15:37:48;1.05;;;0.63;;
25952;SDS011;13750;50.804;8.764;2023-09-30T15:40:14;1.03;;;0.40;;
25952;SDS011;13750;50.804;8.764;2023-09-30T15:42:42;0.40;;;0.40;;
25952;SDS011;13750;50.804;8.764;2023-09-30T15:45:08;0.70;;;0.55;;
25952;SDS011;13750;50.804;8.764;2023-09-30T15:47:36;1.67;;;0.47;;
25952;SDS011;13750;50.804;8.764;2023-09-30T15:50:02;0.70;;;0.60;;
25952;SDS011;13750;50.804;8.764;2023-09-30T15:52:28;0.80;;;0.50;;
25952;SDS011;13750;50.804;8.764;2023-09-30T15:54:54;1.17;;;0.63;;
25952;SDS011;13750;50.804;8.764;2023-09-30T15:57:21;0.85;;;0.52;;
25952;SDS011;13750;50.804;8.764;2023-09-30T16:02:23;0.88;;;0.70;;
25952;SDS011;13750;50.804;8.764;2023-09-30T16:04:48;0.70;;;0.70;;
25952;SDS011;13750;50.804;8.764;2023-09-30T16:07:14;0.97;;;0.60;;
25952;SDS011;13750;50.804;8.764;2023-09-30T16:14:43;0.60;;;0.50;;
25952;SDS011;13750;50.804;8.764;2023-09-30T16:17:08;0.87;;;0.60;;
25952;SDS011;13750;50.804;8.764;2023-09-30T16:19:35;0.40;;;0.40;;
25952;SDS011;13750;50.804;8.764;2023-09-30T16:22:01;0.50;;;0.43;;
25952;SDS011;13750;50.804;8.764;2023-09-30T16:24:27;0.80;;;0.55;;
25952;SDS011;13750;50.804;8.764;2023-09-30T16:26:53;0.77;;;0.60;;
25952;SDS011;13750;50.804;8.764;2023-09-30T16:29:18;0.60;;;0.50;;
25952;SDS011;13750;50.804;8.764;2023-09-30T16:31:44;0.43;;;0.43;;
25952;SDS011;13750;50.804;8.764;2023-09-30T16:34:09;0.67;;;0.43;;
25952;SDS011;13750;50.804;8.764;2023-09-30T16:36:35;0.67;;;0.43;;
25952;SDS011;13750;50.804;8.764;2023-09-30T16:39:02;1.10;;;0.57;;
25952;SDS011;13750;50.804;8.764;2023-09-30T16:41:28;0.73;;;0.40;;
25952;SDS011;13750;50.804;8.764;2023-09-30T16:43:53;0.47;;;0.47;;
25952;SDS011;13750;50.804;8.764;2023-09-30T16:46:19;0.93;;;0.60;;
25952;SDS011;13750;50.804;8.764;2023-09-30T16:48:44;0.63;;;0.60;;
25952;SDS011;13750;50.804;8.764;2023-09-30T16:51:10;1.67;;;0.70;;
25952;SDS011;13750;50.804;8.764;2023-09-30T16:53:38;0.80;;;0.70;;
25952;SDS011;13750;50.804;8.764;2023-09-30T16:56:03;2.00;;;0.77;;
25952;SDS011;13750;50.804;8.764;2023-09-30T16:58:29;1.55;;;0.80;;
25952;SDS011;13750;50.804;8.764;2023-09-30T17:00:56;1.55;;;0.93;;
25952;SDS011;13750;50.804;8.764;2023-09-30T17:03:22;1.20;;;0.87;;